Navios Libra 2 — 3FRE4 — position and weather

sailwx.info

Track history (hours):
 
Tides and Currents Weather Stations Pressure Air Temp Water Temp Dewpoint Dewpoint Depression Visibility Wind Speed Wind Dir Waves Ship Positions

Navios Libra 2

Last reported at 2017-Dec-04 05:12 UTC. Time now 2017-Dec-17 12:01 UTC.
Position N 30°03' W 090°40'.
Warning: this ship's position is 13 days out of date.

Length 224 m; draft 12.9 m.

Type: Cargo ship. MMSI: 354330000.

Date/timePositionNaut miles runAvg speedWind from/ knotsBaromVisibWave heightAir tempDewpointWater temp
2017-Dec-04 05:12N 30°03' W 090°40'0 0.0
2017-Dec-04 05:00N 30°03' W 090°40'0 0.0
2017-Dec-04 04:30N 30°03' W 090°40'0 0.0
2017-Dec-04 04:00N 30°03' W 090°40'  
2017-Nov-28 08:57N 30°02' W 090°37'3 6.1
2017-Nov-28 08:30N 30°03' W 090°34'9 5.7
2017-Nov-28 06:53N 29°59' W 090°24'2 5.6
2017-Nov-28 06:30N 29°58' W 090°24'4 6.4
2017-Nov-28 05:54N 29°56' W 090°19'3 6.7
2017-Nov-28 05:26N 29°58' W 090°17'6 5.7
2017-Nov-28 04:24N 29°57' W 090°10'2 4.0
2017-Nov-28 03:57N 29°56' W 090°08'  
Track history (hours):
 
Tides and Currents Weather Stations Pressure Air Temp Water Temp Dewpoint Dewpoint Depression Visibility Wind Speed Wind Dir Waves Ship Positions

Navios Libra 2

Last reported at 2017-Dec-04 05:12 UTC. Time now 2017-Dec-17 12:01 UTC.
Position N 30°03' W 090°40'.
Warning: this ship's position is 13 days out of date.

Length 224 m; draft 12.9 m.

Type: Cargo ship. MMSI: 354330000.

Date/timePositionNaut miles runAvg speedWind from/ knotsBaromVisibWave heightAir tempDewpointWater temp
2017-Dec-04 05:12N 30°03' W 090°40'0 0.0
2017-Dec-04 05:00N 30°03' W 090°40'0 0.0
2017-Dec-04 04:30N 30°03' W 090°40'0 0.0
2017-Dec-04 04:00N 30°03' W 090°40'  
2017-Nov-28 08:57N 30°02' W 090°37'3 6.1
2017-Nov-28 08:30N 30°03' W 090°34'9 5.7
2017-Nov-28 06:53N 29°59' W 090°24'2 5.6
2017-Nov-28 06:30N 29°58' W 090°24'4 6.4
2017-Nov-28 05:54N 29°56' W 090°19'3 6.7
2017-Nov-28 05:26N 29°58' W 090°17'6 5.7
2017-Nov-28 04:24N 29°57' W 090°10'2 4.0
2017-Nov-28 03:57N 29°56' W 090°08'  

Dump ship's entire track history